This is the latest recevied weather packets stored in our database for station/object K7TSD. If no packets are shown the sender has not sent any weather packets the latest 1 day(s).
| Time | Temp. | Humidity | Pressure | Rain* | Wind** | Luminosity | Snow |
|---|---|---|---|---|---|---|---|
| 1778099126 | 8.89° C | 45% | 1012.3 hPa | 0 mm | - | 613 W/m² | - |
| 1778098520 | 8.33° C | 47% | 1012.3 hPa | 0 mm | - | 631 W/m² | - |
| 1778098216 | 10° C | 44% | 1012.4 hPa | 0 mm | - | 667 W/m² | - |
| 1778096391 | 7.78° C | 49% | 1012.9 hPa | 0 mm | - | 661 W/m² | - |
| 1778095784 | 8.89° C | 44% | 1012.8 hPa | 0 mm | - | 702 W/m² | - |
| 1778095178 | 7.78° C | 45% | 1013.1 hPa | 0 mm | - | 699 W/m² | - |
| 1778094268 | 7.22° C | 49% | 1013.2 hPa | 0 mm | - | 727 W/m² | - |
| 1778093965 | 7.78° C | 47% | 1013.1 hPa | 0 mm | - | 730 W/m² | - |
| 1778093056 | 7.22° C | 49% | 1013.8 hPa | 0 mm | - | 767 W/m² | - |
| 1778092146 | 6.67° C | 47% | 1013.7 hPa | 0 mm | - | 783 W/m² | - |
| 1778091843 | 6.67° C | 47% | 1014.2 hPa | 0 mm | - | 743 W/m² | - |
| 1778091238 | 6.11° C | 49% | 1014.2 hPa | 0 mm | - | 811 W/m² | - |
| 1778090935 | 6.11° C | 50% | 1014.4 hPa | 0 mm | - | 865 W/m² | - |
| 1778089116 | 7.22° C | 46% | 1014.7 hPa | 0 mm | - | 780 W/m² | - |
| 1778088813 | 6.67° C | 48% | 1014.9 hPa | 0 mm | - | 802 W/m² | - |
| 1778088510 | 7.22° C | 46% | 1014.6 hPa | 0 mm | - | 811 W/m² | - |
| 1778088207 | 6.11° C | 49% | 1014.6 hPa | 0 mm | - | 806 W/m² | - |
| 1778087904 | 5.56° C | 46% | 1014.7 hPa | 0 mm | - | 789 W/m² | - |
| 1778087601 | 5° C | 48% | 1014.7 hPa | 0 mm | - | 803 W/m² | - |
| 1778087299 | 5° C | 47% | 1015 hPa | 0 mm | - | 810 W/m² | - |
| 1778085784 | 4.44° C | 50% | 1014.9 hPa | 0 mm | - | 749 W/m² | - |
| 1778085481 | 5° C | 50% | 1014.9 hPa | 0 mm | - | 721 W/m² | - |
| 1778085176 | 5° C | 48% | 1014.9 hPa | 0 mm | - | 716 W/m² | - |
| 1778084872 | 4.44° C | 48% | 1015 hPa | 0 mm | - | 719 W/m² | - |
| 1778084570 | 4.44° C | 49% | 1014.6 hPa | 0 mm | - | 700 W/m² | - |
* Rain latest hour (hover to see other rain measurements)
** Current wind speed in m/s (hover to see current wind gust speed)